Time;durP1;ratioP1;P1;durP2;ratioP2;P2;SDS_P1;SDS_P2;PMS_P1;PMS_P2;Temp;Humidity;BMP_temperature;BMP_pressure;BME280_temperature;BME280_humidity;BME280_pressure;Samples;Min_cycle;Max_cycle;Signal;HPM_P1;HPM_P2
2022/08/26 00:00:54;;;;;;;;;;;18.50;99.90;;;;;;4194953;28;19909;-62
2022/08/26 00:02:55;;;;;;;;;;;18.40;99.90;;;;;;4195611;28;19908;-62
2022/08/26 00:04:56;;;;;;;;;;;18.40;99.90;;;;;;4194518;28;19909;-62
2022/08/26 00:06:57;;;;;;;;;;;18.40;99.90;;;;;;4196127;28;19915;-63
2022/08/26 00:08:58;;;;;;;;;;;18.40;99.90;;;;;;4194897;28;19950;-62
2022/08/26 00:11:00;;;;;;;;;;;18.30;99.90;;;;;;4194905;28;19912;-62
2022/08/26 00:13:01;;;;;;;;;;;18.30;99.90;;;;;;4194869;28;19909;-62
2022/08/26 00:15:04;;;;;;;;;;;18.30;99.90;;;;;;4195228;28;20344;-62
2022/08/26 00:17:05;;;;;;;;;;;18.30;99.90;;;;;;4195216;28;19912;-62
2022/08/26 00:19:05;;;;;;;;;;;18.30;99.90;;;;;;4194285;28;20328;-61
2022/08/26 00:21:07;;;;;;;;;;;18.30;99.90;;;;;;4195575;28;20342;-61
2022/08/26 00:23:08;;;;;;;;;;;18.30;99.90;;;;;;4194236;28;19909;-61
2022/08/26 00:25:10;;;;;;;;;;;18.20;99.90;;;;;;4195616;28;20008;-61
2022/08/26 00:27:11;;;;;;;;;;;18.20;99.90;;;;;;4193970;28;19913;-61
2022/08/26 00:29:12;;;;;;;;;;;18.20;99.90;;;;;;4195418;28;19912;-61
2022/08/26 00:31:13;;;;;;;;;;;18.20;99.90;;;;;;4194305;28;20348;-61
2022/08/26 00:33:15;;;;;;;;;;;18.10;99.90;;;;;;4195805;28;19934;-61
2022/08/26 00:35:16;;;;;;;;;;;18.10;99.90;;;;;;4193842;28;19916;-61
2022/08/26 00:37:17;;;;;;;;;;;18.10;99.90;;;;;;4195626;28;19908;-61
2022/08/26 00:39:19;;;;;;;;;;;18.10;99.90;;;;;;4194124;28;19915;-63
2022/08/26 00:41:19;;;;;;;;;;;18.10;99.90;;;;;;4195286;28;19908;-62
2022/08/26 00:43:21;;;;;;;;;;;18.10;99.90;;;;;;4194044;28;19950;-62
2022/08/26 00:45:22;;;;;;;;;;;18.00;99.90;;;;;;4194659;28;19916;-61
2022/08/26 00:47:27;;;;;;;;;;;18.00;99.90;;;;;;4194817;28;19917;-62
2022/08/26 00:49:42;;;;;;;;;;;18.00;99.90;;;;;;4194240;28;20501;-62
2022/08/26 00:51:46;;;;;;;;;;;18.00;99.90;;;;;;4194914;28;19908;-61
2022/08/26 00:53:50;;;;;;;;;;;18.00;99.90;;;;;;4175904;28;19908;-63
2022/08/26 00:55:54;;;;;;;;;;;18.00;99.90;;;;;;4195152;28;19912;-61
2022/08/26 00:57:54;;;;;;;;;;;17.90;99.90;;;;;;4193902;28;19904;-61
2022/08/26 00:59:57;;;;;;;;;;;17.90;99.90;;;;;;4195399;28;20409;-61
2022/08/26 01:01:58;;;;;;;;;;;17.90;99.90;;;;;;4193876;28;20311;-61
2022/08/26 01:03:59;;;;;;;;;;;17.90;99.90;;;;;;4195416;28;19909;-61
2022/08/26 01:06:01;;;;;;;;;;;17.90;99.90;;;;;;4193537;28;19910;-62
2022/08/26 01:08:02;;;;;;;;;;;17.90;99.90;;;;;;4195353;28;19934;-62
2022/08/26 01:10:05;;;;;;;;;;;17.80;99.90;;;;;;4192959;28;19904;-62
2022/08/26 01:12:06;;;;;;;;;;;17.80;99.90;;;;;;4194837;28;19905;-62
2022/08/26 01:14:07;;;;;;;;;;;17.70;99.90;;;;;;4192820;28;19954;-61
2022/08/26 01:16:11;;;;;;;;;;;17.70;99.90;;;;;;4195172;28;19954;-62
2022/08/26 01:18:13;;;;;;;;;;;17.60;99.90;;;;;;4193855;28;20791;-61
2022/08/26 01:20:21;;;;;;;;;;;17.60;99.90;;;;;;4194044;28;19954;-61
2022/08/26 01:22:40;;;;;;;;;;;17.60;99.90;;;;;;4193212;28;19908;-61
2022/08/26 01:24:42;;;;;;;;;;;17.50;99.90;;;;;;4195024;28;19904;-63
2022/08/26 01:26:44;;;;;;;;;;;17.60;99.90;;;;;;4193788;28;19912;-62
2022/08/26 01:28:45;;;;;;;;;;;17.50;99.90;;;;;;4194324;28;19916;-62
2022/08/26 01:30:47;;;;;;;;;;;17.50;99.90;;;;;;4176113;28;19901;-61
2022/08/26 01:32:49;;;;;;;;;;;17.50;99.90;;;;;;4193509;28;19950;-62
2022/08/26 01:34:51;;;;;;;;;;;17.50;99.90;;;;;;4194346;28;19924;-61
2022/08/26 01:36:57;;;;;;;;;;;17.50;99.90;;;;;;4193507;28;19905;-62
2022/08/26 01:38:58;;;;;;;;;;;17.50;99.90;;;;;;4194841;28;19935;-62
2022/08/26 01:41:01;;;;;;;;;;;17.40;99.90;;;;;;4193344;28;19908;-62
2022/08/26 01:43:04;;;;;;;;;;;17.40;99.90;;;;;;4194764;28;19904;-61
2022/08/26 01:45:31;;;;;;;;;;;17.40;99.90;;;;;;4193217;28;19943;-61
2022/08/26 01:47:33;;;;;;;;;;;17.40;99.90;;;;;;4191232;28;19916;-61
2022/08/26 01:49:35;;;;;;;;;;;17.40;99.90;;;;;;4193408;28;20334;-62
2022/08/26 01:51:37;;;;;;;;;;;17.30;99.90;;;;;;4194829;28;19949;-62
2022/08/26 01:53:39;;;;;;;;;;;17.30;99.90;;;;;;4193082;28;19950;-61
2022/08/26 01:55:41;;;;;;;;;;;17.30;99.90;;;;;;4194899;28;19922;-62
2022/08/26 01:57:43;;;;;;;;;;;17.20;99.90;;;;;;4193244;28;19908;-61
2022/08/26 01:59:44;;;;;;;;;;;17.20;99.90;;;;;;4194669;28;20356;-62
2022/08/26 02:01:46;;;;;;;;;;;17.20;99.90;;;;;;4193230;28;20260;-61
2022/08/26 02:04:07;;;;;;;;;;;17.20;99.90;;;;;;4194620;28;20045;-62
2022/08/26 02:06:08;;;;;;;;;;;17.10;99.90;;;;;;4192401;28;19962;-62
2022/08/26 02:08:10;;;;;;;;;;;17.10;99.90;;;;;;4194714;28;19912;-61
2022/08/26 02:10:11;;;;;;;;;;;17.10;99.90;;;;;;4193126;28;19905;-61
2022/08/26 02:12:14;;;;;;;;;;;17.10;99.90;;;;;;4194311;28;19904;-61
2022/08/26 02:14:19;;;;;;;;;;;17.00;99.90;;;;;;4193379;28;19905;-60
2022/08/26 02:16:23;;;;;;;;;;;17.00;99.90;;;;;;4194053;28;19908;-62
2022/08/26 02:18:24;;;;;;;;;;;17.00;99.90;;;;;;4193597;28;19900;-61
2022/08/26 02:20:25;;;;;;;;;;;17.00;99.90;;;;;;4192871;28;20426;-63
2022/08/26 02:22:27;;;;;;;;;;;17.00;99.90;;;;;;4175823;28;19905;-61
2022/08/26 02:24:29;;;;;;;;;;;16.90;99.90;;;;;;4193292;28;20289;-62
2022/08/26 02:26:30;;;;;;;;;;;16.90;99.90;;;;;;4194283;28;20346;-62
2022/08/26 02:28:34;;;;;;;;;;;16.90;99.90;;;;;;4193068;28;19908;-61
2022/08/26 02:30:37;;;;;;;;;;;16.90;99.90;;;;;;4194510;28;19958;-60
2022/08/26 02:32:38;;;;;;;;;;;16.90;99.90;;;;;;4192908;28;19904;-61
2022/08/26 02:34:39;;;;;;;;;;;17.00;99.90;;;;;;4194235;28;19920;-61
2022/08/26 02:36:41;;;;;;;;;;;16.90;99.90;;;;;;4192752;28;19909;-62
2022/08/26 02:38:42;;;;;;;;;;;16.90;99.90;;;;;;4194467;28;19957;-61
2022/08/26 02:40:43;;;;;;;;;;;16.90;99.90;;;;;;4192826;28;20330;-62
2022/08/26 02:42:43;;;;;;;;;;;16.90;99.90;;;;;;4194338;28;19915;-62
2022/08/26 02:44:44;;;;;;;;;;;16.90;99.90;;;;;;4192953;28;19904;-62
2022/08/26 02:46:46;;;;;;;;;;;16.90;99.90;;;;;;4193722;28;20297;-61
2022/08/26 02:48:47;;;;;;;;;;;16.90;99.90;;;;;;4193080;28;20449;-61
2022/08/26 02:50:48;;;;;;;;;;;16.90;99.90;;;;;;4193459;28;19957;-61
2022/08/26 02:52:49;;;;;;;;;;;16.90;99.90;;;;;;4193596;28;19912;-62
2022/08/26 02:54:50;;;;;;;;;;;16.90;99.90;;;;;;4192809;28;19908;-62
2022/08/26 02:56:51;;;;;;;;;;;16.90;99.90;;;;;;4194112;28;19912;-61
2022/08/26 02:58:52;;;;;;;;;;;16.90;99.90;;;;;;4193849;28;19948;-61
2022/08/26 03:00:53;;;;;;;;;;;16.80;99.90;;;;;;4197137;28;19943;-62
2022/08/26 03:02:54;;;;;;;;;;;16.80;99.90;;;;;;4194920;28;19912;-62
2022/08/26 03:04:55;;;;;;;;;;;16.80;99.90;;;;;;4197170;28;20540;-61
2022/08/26 03:06:56;;;;;;;;;;;16.80;99.90;;;;;;4195052;28;19916;-61
2022/08/26 03:08:57;;;;;;;;;;;16.80;99.90;;;;;;4197102;28;19986;-62
2022/08/26 03:10:58;;;;;;;;;;;16.80;99.90;;;;;;4195812;28;19934;-62
2022/08/26 03:12:59;;;;;;;;;;;16.80;99.90;;;;;;4197050;28;19912;-62
2022/08/26 03:15:00;;;;;;;;;;;16.80;99.90;;;;;;4195543;28;19905;-61
2022/08/26 03:17:01;;;;;;;;;;;16.80;99.90;;;;;;4196662;28;20364;-62
2022/08/26 03:19:02;;;;;;;;;;;16.80;99.90;;;;;;4195924;28;20245;-61
2022/08/26 03:21:09;;;;;;;;;;;16.70;99.90;;;;;;4196134;28;19962;-61
2022/08/26 03:23:11;;;;;;;;;;;16.70;99.90;;;;;;4195709;28;19904;-61
2022/08/26 03:25:13;;;;;;;;;;;16.70;99.90;;;;;;4195707;28;19958;-61
2022/08/26 03:27:14;;;;;;;;;;;16.60;99.90;;;;;;4196319;28;19916;-61
2022/08/26 03:31:35;;;;;;;;;;;16.60;99.90;;;;;;4196605;28;19953;-61
2022/08/26 03:33:35;;;;;;;;;;;16.60;99.90;;;;;;4195119;28;19912;-62
2022/08/26 03:35:37;;;;;;;;;;;16.60;99.90;;;;;;4196492;28;20288;-62
2022/08/26 03:37:38;;;;;;;;;;;16.50;99.90;;;;;;4195248;28;19908;-62
2022/08/26 03:39:40;;;;;;;;;;;16.40;99.90;;;;;;4196813;28;19913;-62
2022/08/26 03:41:42;;;;;;;;;;;16.40;99.90;;;;;;4195099;28;19953;-62
2022/08/26 03:43:46;;;;;;;;;;;16.40;99.90;;;;;;4196460;28;19908;-62
2022/08/26 03:45:47;;;;;;;;;;;16.40;99.90;;;;;;4195072;28;19935;-62
2022/08/26 03:47:48;;;;;;;;;;;16.30;99.90;;;;;;4196482;28;19920;-62
2022/08/26 03:49:49;;;;;;;;;;;16.30;99.90;;;;;;4194844;28;19908;-62
2022/08/26 03:51:50;;;;;;;;;;;16.40;99.90;;;;;;4178506;28;19905;-61
2022/08/26 03:53:51;;;;;;;;;;;16.30;99.90;;;;;;4194252;28;19977;-61
2022/08/26 03:55:52;;;;;;;;;;;16.40;99.90;;;;;;4195976;28;19904;-63
2022/08/26 03:57:53;;;;;;;;;;;16.40;99.90;;;;;;4195341;28;19901;-62
2022/08/26 03:59:54;;;;;;;;;;;16.50;99.90;;;;;;4195191;28;20310;-63
2022/08/26 04:01:54;;;;;;;;;;;16.70;99.90;;;;;;4195692;28;19904;-62
2022/08/26 04:03:59;;;;;;;;;;;16.80;99.90;;;;;;4194773;28;20279;-62
2022/08/26 04:05:59;;;;;;;;;;;17.00;99.90;;;;;;4195898;28;19974;-62
2022/08/26 04:08:00;;;;;;;;;;;17.20;99.90;;;;;;4194537;28;19913;-62
2022/08/26 04:10:03;;;;;;;;;;;17.30;99.90;;;;;;4195709;28;19908;-62
2022/08/26 04:12:04;;;;;;;;;;;17.60;99.90;;;;;;4194701;28;19954;-62
2022/08/26 04:14:06;;;;;;;;;;;17.70;99.90;;;;;;4195072;28;20270;-62
2022/08/26 04:16:07;;;;;;;;;;;17.90;99.90;;;;;;4194357;28;19966;-62
2022/08/26 04:18:08;;;;;;;;;;;18.20;99.90;;;;;;4195333;28;19905;-62
2022/08/26 04:20:12;;;;;;;;;;;18.50;99.90;;;;;;4175858;28;19946;-62
2022/08/26 04:22:13;;;;;;;;;;;18.80;99.90;;;;;;4177301;28;19904;-61
2022/08/26 04:24:15;;;;;;;;;;;19.10;99.90;;;;;;4193888;28;20352;-62
2022/08/26 04:26:17;;;;;;;;;;;19.40;99.90;;;;;;4195026;28;19904;-62
2022/08/26 04:28:17;;;;;;;;;;;19.70;99.90;;;;;;4193841;28;20402;-63
2022/08/26 04:30:18;;;;;;;;;;;19.90;99.90;;;;;;4194348;28;19971;-62
2022/08/26 04:32:20;;;;;;;;;;;20.20;99.90;;;;;;4194025;28;19904;-62
2022/08/26 04:34:25;;;;;;;;;;;20.50;99.90;;;;;;4194107;28;20206;-63
2022/08/26 04:36:25;;;;;;;;;;;20.90;99.90;;;;;;4194890;28;19908;-64
2022/08/26 04:38:26;;;;;;;;;;;21.30;99.90;;;;;;4193524;28;19904;-63
2022/08/26 04:40:27;;;;;;;;;;;21.70;99.90;;;;;;4194560;28;19908;-62
2022/08/26 04:42:28;;;;;;;;;;;22.00;99.90;;;;;;4193847;28;20288;-62
2022/08/26 04:44:29;;;;;;;;;;;22.40;99.90;;;;;;4194995;28;20700;-64
2022/08/26 04:46:31;;;;;;;;;;;22.80;99.90;;;;;;4175589;28;19954;-63
2022/08/26 04:48:32;;;;;;;;;;;23.20;99.90;;;;;;4195188;28;20029;-62
2022/08/26 04:50:33;;;;;;;;;;;23.60;99.90;;;;;;4193537;28;19962;-63
2022/08/26 04:52:35;;;;;;;;;;;24.00;99.60;;;;;;4195282;28;20402;-62
2022/08/26 04:54:36;;;;;;;;;;;24.20;98.70;;;;;;4193781;28;20334;-63
2022/08/26 04:56:38;;;;;;;;;;;24.50;98.40;;;;;;4195066;28;19905;-63
2022/08/26 04:58:40;;;;;;;;;;;24.90;97.70;;;;;;4193350;28;19908;-63
2022/08/26 05:00:42;;;;;;;;;;;25.10;96.80;;;;;;4193879;28;19904;-63
2022/08/26 05:02:42;;;;;;;;;;;25.10;96.30;;;;;;4194116;28;19908;-62
2022/08/26 05:04:43;;;;;;;;;;;25.40;96.00;;;;;;4193785;28;19911;-63
2022/08/26 05:06:45;;;;;;;;;;;25.80;95.50;;;;;;4194426;28;19904;-62
2022/08/26 05:08:46;;;;;;;;;;;26.10;95.00;;;;;;4193837;28;19908;-62
2022/08/26 05:10:53;;;;;;;;;;;26.30;94.30;;;;;;4194906;28;20257;-61
2022/08/26 05:12:54;;;;;;;;;;;26.40;93.70;;;;;;4193399;28;19908;-62
2022/08/26 05:14:55;;;;;;;;;;;26.60;93.30;;;;;;4194771;28;19905;-62
2022/08/26 05:16:56;;;;;;;;;;;26.80;92.70;;;;;;4193248;28;19970;-63
2022/08/26 05:18:57;;;;;;;;;;;26.90;92.40;;;;;;4194907;28;19934;-62
2022/08/26 05:20:59;;;;;;;;;;;26.90;91.90;;;;;;4192666;28;19911;-62
2022/08/26 05:23:00;;;;;;;;;;;27.00;91.90;;;;;;4193923;28;19954;-62
2022/08/26 05:25:01;;;;;;;;;;;27.30;91.50;;;;;;4192669;28;19912;-62
2022/08/26 05:27:02;;;;;;;;;;;27.60;91.00;;;;;;4194632;28;20356;-62
2022/08/26 05:29:04;;;;;;;;;;;27.80;90.70;;;;;;4193172;28;20004;-62
2022/08/26 05:31:12;;;;;;;;;;;28.10;90.30;;;;;;4194204;28;19908;-62
2022/08/26 05:33:13;;;;;;;;;;;28.50;91.10;;;;;;4193355;28;19904;-62
2022/08/26 05:35:14;;;;;;;;;;;28.80;88.60;;;;;;4193666;28;20360;-63
2022/08/26 05:37:15;;;;;;;;;;;29.10;86.80;;;;;;4193772;28;19979;-63
2022/08/26 05:39:16;;;;;;;;;;;29.30;85.90;;;;;;4193638;28;19912;-62
2022/08/26 05:41:20;;;;;;;;;;;29.40;84.80;;;;;;4194128;28;19912;-62
2022/08/26 05:43:21;;;;;;;;;;;29.70;84.00;;;;;;4192857;28;19904;-63
2022/08/26 05:45:24;;;;;;;;;;;29.90;82.30;;;;;;4193652;28;19950;-64
2022/08/26 05:47:25;;;;;;;;;;;29.50;82.00;;;;;;4193106;28;19912;-62
2022/08/26 05:49:25;;;;;;;;;;;29.30;82.20;;;;;;4194402;28;19978;-63
2022/08/26 05:51:26;;;;;;;;;;;29.30;82.00;;;;;;4192686;28;19974;-62
2022/08/26 05:53:27;;;;;;;;;;;29.30;81.90;;;;;;4194493;28;20017;-63
2022/08/26 05:55:28;;;;;;;;;;;29.40;81.40;;;;;;4192370;28;19905;-63
2022/08/26 05:57:29;;;;;;;;;;;29.50;81.80;;;;;;4194529;28;19982;-63
2022/08/26 05:59:30;;;;;;;;;;;29.60;81.10;;;;;;4192728;28;20338;-62
2022/08/26 06:01:32;;;;;;;;;;;29.80;80.40;;;;;;4194033;28;19904;-63
2022/08/26 06:03:34;;;;;;;;;;;29.90;79.90;;;;;;4192797;28;19912;-63
2022/08/26 06:05:39;;;;;;;;;;;29.90;79.80;;;;;;4193727;28;19908;-63
2022/08/26 06:09:59;;;;;;;;;;;30.50;79.20;;;;;;4194069;28;20326;-63
2022/08/26 06:12:00;;;;;;;;;;;30.50;78.10;;;;;;4193017;28;19901;-64
2022/08/26 06:14:04;;;;;;;;;;;30.60;77.40;;;;;;4193622;28;19931;-64
2022/08/26 06:16:06;;;;;;;;;;;30.60;76.80;;;;;;4193181;28;19946;-62
2022/08/26 06:18:07;;;;;;;;;;;30.80;76.50;;;;;;4193157;28;19918;-64
2022/08/26 06:20:08;;;;;;;;;;;31.00;76.30;;;;;;4193206;28;20282;-63
2022/08/26 06:25:36;;;;;;;;;;;31.20;75.20;;;;;;4192931;28;19904;-62
2022/08/26 06:26:51;;;;;;;;;;;31.20;74.70;;;;;;4193329;28;19958;-64
2022/08/26 06:28:52;;;;;;;;;;;31.50;74.10;;;;;;4193808;28;19920;-63
2022/08/26 06:30:54;;;;;;;;;;;31.40;73.40;;;;;;4192866;28;19935;-63
2022/08/26 06:32:55;;;;;;;;;;;31.70;73.90;;;;;;4195295;28;19909;-62
2022/08/26 06:34:56;;;;;;;;;;;31.90;72.60;;;;;;4195670;28;19924;-63
2022/08/26 06:36:58;;;;;;;;;;;32.10;72.50;;;;;;4179415;28;19909;-62
2022/08/26 06:39:01;;;;;;;;;;;32.10;71.70;;;;;;4195866;28;19950;-63
2022/08/26 06:41:02;;;;;;;;;;;32.30;71.20;;;;;;4197348;28;19904;-63
2022/08/26 06:43:03;;;;;;;;;;;31.80;69.30;;;;;;4195893;28;19927;-63
2022/08/26 06:45:04;;;;;;;;;;;31.70;70.10;;;;;;4197455;28;19904;-64
2022/08/26 06:47:06;;;;;;;;;;;31.60;70.30;;;;;;4195627;28;19909;-64
2022/08/26 06:49:07;;;;;;;;;;;31.70;69.70;;;;;;4197152;28;19904;-62
2022/08/26 06:51:08;;;;;;;;;;;31.60;69.70;;;;;;4194944;28;19954;-62
2022/08/26 06:53:09;;;;;;;;;;;31.50;69.50;;;;;;4195645;28;19950;-62
2022/08/26 06:55:10;;;;;;;;;;;31.20;70.00;;;;;;4196012;28;19901;-62
2022/08/26 06:57:12;;;;;;;;;;;31.10;71.40;;;;;;4195426;28;19904;-63
2022/08/26 06:59:13;;;;;;;;;;;31.30;70.40;;;;;;4195962;28;19908;-61
2022/08/26 07:01:34;;;;;;;;;;;31.50;70.30;;;;;;4194836;28;19950;-62
2022/08/26 07:03:35;;;;;;;;;;;31.30;69.60;;;;;;4195716;28;19951;-62
2022/08/26 07:05:36;;;;;;;;;;;31.00;70.80;;;;;;4194573;28;19908;-62
2022/08/26 07:07:37;;;;;;;;;;;30.90;70.90;;;;;;4196401;28;20280;-63
2022/08/26 07:09:38;;;;;;;;;;;30.70;71.50;;;;;;4195044;28;20311;-61
2022/08/26 07:11:39;;;;;;;;;;;30.50;72.20;;;;;;4196711;28;19908;-64
2022/08/26 07:13:40;;;;;;;;;;;30.60;72.10;;;;;;4195026;28;19908;-63
2022/08/26 07:15:41;;;;;;;;;;;30.50;71.30;;;;;;4196911;28;19970;-63
2022/08/26 07:17:42;;;;;;;;;;;30.10;70.90;;;;;;4195056;28;20361;-62
2022/08/26 07:19:43;;;;;;;;;;;29.60;72.00;;;;;;4196272;28;19904;-61
2022/08/26 07:21:44;;;;;;;;;;;29.30;72.40;;;;;;4195038;28;19908;-62
2022/08/26 07:23:45;;;;;;;;;;;29.10;72.70;;;;;;4195859;28;19904;-62
2022/08/26 07:25:46;;;;;;;;;;;29.20;72.90;;;;;;4194885;28;19958;-61
2022/08/26 07:27:47;;;;;;;;;;;29.10;72.10;;;;;;4195887;28;19912;-62
2022/08/26 07:29:48;;;;;;;;;;;29.10;73.20;;;;;;4194922;28;20452;-63
2022/08/26 07:31:48;;;;;;;;;;;28.90;72.70;;;;;;4195037;28;19905;-63
2022/08/26 07:33:50;;;;;;;;;;;28.60;72.80;;;;;;4195666;28;19916;-62
2022/08/26 07:35:51;;;;;;;;;;;28.40;72.60;;;;;;4194946;28;19954;-61
2022/08/26 07:37:52;;;;;;;;;;;28.30;74.40;;;;;;4195402;28;19915;-64
2022/08/26 07:39:52;;;;;;;;;;;28.30;75.40;;;;;;4194506;28;19912;-63
2022/08/26 07:41:53;;;;;;;;;;;28.30;75.20;;;;;;4195658;28;19986;-64
2022/08/26 07:43:54;;;;;;;;;;;28.30;74.50;;;;;;4194297;28;20261;-61
2022/08/26 07:45:56;;;;;;;;;;;28.20;74.20;;;;;;4195791;28;19931;-63
2022/08/26 07:47:57;;;;;;;;;;;27.90;73.70;;;;;;4194622;28;19966;-61
2022/08/26 07:49:58;;;;;;;;;;;27.60;74.50;;;;;;4196064;28;20302;-61
2022/08/26 07:51:59;;;;;;;;;;;27.40;75.40;;;;;;4194719;28;19904;-62
2022/08/26 07:54:00;;;;;;;;;;;27.60;73.40;;;;;;4195476;28;19912;-64
2022/08/26 07:56:01;;;;;;;;;;;27.70;74.10;;;;;;4194467;28;19904;-63
2022/08/26 07:58:02;;;;;;;;;;;27.50;74.60;;;;;;4195306;28;19954;-62
2022/08/26 08:00:06;;;;;;;;;;;27.60;75.30;;;;;;4194505;28;20380;-62
2022/08/26 08:02:07;;;;;;;;;;;27.80;75.30;;;;;;4194894;28;19904;-62
2022/08/26 08:04:07;;;;;;;;;;;27.80;72.30;;;;;;4195106;28;19908;-62
2022/08/26 08:06:08;;;;;;;;;;;27.90;73.70;;;;;;4176063;28;19913;-62
2022/08/26 08:08:09;;;;;;;;;;;27.90;71.70;;;;;;4195213;28;19916;-61
2022/08/26 08:10:15;;;;;;;;;;;28.00;72.70;;;;;;4194194;28;19992;-61
2022/08/26 08:12:17;;;;;;;;;;;28.10;72.50;;;;;;4195662;28;19904;-62
2022/08/26 08:14:19;;;;;;;;;;;28.40;72.00;;;;;;4194093;28;19909;-61
2022/08/26 08:16:20;;;;;;;;;;;28.60;72.20;;;;;;4195602;28;19905;-62
2022/08/26 08:18:22;;;;;;;;;;;28.60;69.10;;;;;;4193771;28;19951;-63
2022/08/26 08:20:23;;;;;;;;;;;28.40;68.60;;;;;;4177086;28;19905;-61
2022/08/26 08:22:24;;;;;;;;;;;28.30;70.60;;;;;;4175691;28;20002;-62
2022/08/26 08:24:25;;;;;;;;;;;28.40;70.20;;;;;;4177311;28;19905;-62
2022/08/26 08:26:26;;;;;;;;;;;28.60;70.80;;;;;;4193925;28;19908;-63
2022/08/26 08:28:27;;;;;;;;;;;28.90;69.80;;;;;;4195243;28;19985;-64
2022/08/26 08:30:28;;;;;;;;;;;29.30;70.40;;;;;;4193875;28;19961;-63
2022/08/26 08:32:29;;;;;;;;;;;29.60;69.00;;;;;;4194190;28;20426;-63
2022/08/26 08:34:30;;;;;;;;;;;29.80;68.00;;;;;;4194015;28;19920;-63
2022/08/26 08:36:32;;;;;;;;;;;29.90;68.20;;;;;;4193674;28;19909;-63
2022/08/26 08:38:33;;;;;;;;;;;29.90;69.40;;;;;;4194104;28;19904;-62
2022/08/26 08:40:38;;;;;;;;;;;29.90;65.70;;;;;;4193684;28;20316;-63
2022/08/26 08:42:57;;;;;;;;;;;29.80;64.40;;;;;;4194552;28;19909;-63
2022/08/26 08:45:00;;;;;;;;;;;29.80;64.90;;;;;;4193193;28;19965;-62
2022/08/26 08:47:04;;;;;;;;;;;29.80;66.10;;;;;;4195173;28;19962;-61
2022/08/26 08:49:05;;;;;;;;;;;29.70;64.40;;;;;;4193541;28;19946;-62
2022/08/26 08:51:12;;;;;;;;;;;29.80;65.30;;;;;;4195118;28;19904;-61
2022/08/26 08:53:43;;;;;;;;;;;29.70;65.10;;;;;;4193671;28;20353;-62
2022/08/26 08:55:44;;;;;;;;;;;29.60;64.60;;;;;;4181350;28;19904;-62
2022/08/26 08:57:54;;;;;;;;;;;29.40;66.90;;;;;;4193267;28;19909;-62
2022/08/26 09:00:04;;;;;;;;;;;29.40;66.50;;;;;;4194832;28;19908;-62
2022/08/26 09:02:23;;;;;;;;;;;29.50;66.00;;;;;;4193602;28;19908;-62
2022/08/26 09:04:42;;;;;;;;;;;29.50;65.30;;;;;;4194092;28;20250;-62
2022/08/26 09:06:45;;;;;;;;;;;29.40;67.00;;;;;;4193620;28;19904;-63
2022/08/26 09:08:47;;;;;;;;;;;29.50;65.30;;;;;;4194419;28;19969;-62
2022/08/26 09:10:53;;;;;;;;;;;29.60;66.40;;;;;;4193436;28;20375;-62
2022/08/26 09:12:54;;;;;;;;;;;29.50;66.50;;;;;;4194670;28;19909;-62
2022/08/26 09:15:04;;;;;;;;;;;29.40;65.10;;;;;;4193453;28;20268;-63
2022/08/26 09:17:08;;;;;;;;;;;29.50;66.80;;;;;;4194769;28;19908;-64
2022/08/26 09:19:13;;;;;;;;;;;29.40;64.50;;;;;;4193221;28;19905;-63
2022/08/26 09:21:15;;;;;;;;;;;29.40;65.80;;;;;;4194532;28;19938;-63
2022/08/26 09:23:16;;;;;;;;;;;29.20;64.50;;;;;;4193085;28;20221;-62
2022/08/26 09:25:17;;;;;;;;;;;29.20;66.40;;;;;;4194365;28;19934;-62
2022/08/26 09:27:39;;;;;;;;;;;29.20;64.80;;;;;;4192801;28;19908;-64
2022/08/26 09:29:41;;;;;;;;;;;29.10;64.80;;;;;;4194702;28;19920;-61
2022/08/26 09:31:44;;;;;;;;;;;28.90;65.30;;;;;;4193025;28;19939;-62
2022/08/26 09:33:45;;;;;;;;;;;28.70;66.10;;;;;;4194635;28;19921;-62
2022/08/26 09:35:47;;;;;;;;;;;28.60;65.50;;;;;;4192274;28;19912;-62
2022/08/26 09:37:48;;;;;;;;;;;28.60;66.00;;;;;;4194557;28;20323;-63
2022/08/26 09:39:49;;;;;;;;;;;28.60;66.60;;;;;;4175021;28;20364;-63
2022/08/26 09:42:11;;;;;;;;;;;28.60;66.50;;;;;;4194196;28;19948;-63
2022/08/26 09:44:14;;;;;;;;;;;28.80;66.90;;;;;;4193058;28;19973;-62
2022/08/26 09:46:20;;;;;;;;;;;29.00;66.50;;;;;;4194264;28;20356;-63
2022/08/26 09:48:40;;;;;;;;;;;28.90;66.40;;;;;;4192719;28;19916;-63
2022/08/26 09:50:53;;;;;;;;;;;28.80;66.50;;;;;;4194180;28;19991;-62
2022/08/26 09:53:06;;;;;;;;;;;28.70;66.20;;;;;;4192957;28;19954;-62
2022/08/26 09:55:13;;;;;;;;;;;28.80;67.10;;;;;;4194546;28;19957;-62
2022/08/26 09:57:15;;;;;;;;;;;28.80;65.50;;;;;;4192730;28;19954;-63
2022/08/26 09:59:27;;;;;;;;;;;28.80;64.40;;;;;;4194056;28;20268;-62
2022/08/26 10:01:36;;;;;;;;;;;28.90;63.50;;;;;;4192762;28;19904;-63
2022/08/26 10:03:38;;;;;;;;;;;29.10;63.30;;;;;;4194209;28;20360;-63
2022/08/26 10:05:53;;;;;;;;;;;29.20;63.80;;;;;;4174502;28;19935;-62
2022/08/26 10:07:54;;;;;;;;;;;29.20;63.90;;;;;;4196421;28;20010;-62
2022/08/26 10:09:55;;;;;;;;;;;29.10;63.90;;;;;;4197911;28;20430;-62
2022/08/26 10:11:58;;;;;;;;;;;29.20;63.90;;;;;;4198833;28;19920;-61
2022/08/26 10:14:12;;;;;;;;;;;29.30;64.20;;;;;;4198697;28;19908;-62
2022/08/26 10:16:22;;;;;;;;;;;29.50;63.60;;;;;;4198960;28;19908;-64
2022/08/26 10:18:30;;;;;;;;;;;29.60;62.30;;;;;;4198161;28;19904;-62
2022/08/26 10:20:35;;;;;;;;;;;29.60;62.80;;;;;;4198965;28;20319;-63
2022/08/26 10:22:39;;;;;;;;;;;29.70;62.80;;;;;;4198440;28;19912;-62
2022/08/26 10:24:43;;;;;;;;;;;29.80;63.00;;;;;;4198379;28;19908;-63
2022/08/26 10:26:56;;;;;;;;;;;29.90;62.60;;;;;;4198880;28;19904;-63
2022/08/26 10:29:08;;;;;;;;;;;29.90;62.00;;;;;;4197833;28;19916;-63
2022/08/26 10:31:15;;;;;;;;;;;29.80;62.60;;;;;;4198291;28;19908;-63
2022/08/26 10:33:17;;;;;;;;;;;29.70;62.30;;;;;;4198302;28;19999;-64
2022/08/26 10:35:18;;;;;;;;;;;29.50;62.60;;;;;;4198781;28;20358;-63
2022/08/26 10:37:22;;;;;;;;;;;29.50;63.20;;;;;;4197953;28;19904;-63
2022/08/26 10:39:30;;;;;;;;;;;29.60;63.70;;;;;;4199255;28;19909;-63
2022/08/26 10:41:32;;;;;;;;;;;29.70;63.70;;;;;;4198057;28;19908;-62
2022/08/26 10:43:46;;;;;;;;;;;29.80;63.20;;;;;;4199389;28;20423;-62
2022/08/26 10:46:08;;;;;;;;;;;29.70;63.10;;;;;;4197720;28;19912;-65
2022/08/26 10:48:11;;;;;;;;;;;29.80;63.40;;;;;;4198344;28;19920;-63
2022/08/26 10:50:12;;;;;;;;;;;29.90;63.60;;;;;;4197378;28;19908;-63
2022/08/26 10:52:28;;;;;;;;;;;29.90;62.60;;;;;;4199043;28;19904;-62
2022/08/26 10:54:38;;;;;;;;;;;29.90;62.20;;;;;;4197860;28;19912;-62
2022/08/26 10:56:40;;;;;;;;;;;30.00;62.90;;;;;;4199355;28;20326;-62
2022/08/26 10:58:41;;;;;;;;;;;29.90;61.40;;;;;;4197683;28;19938;-62
2022/08/26 11:03:35;;;;;;;;;;;29.60;62.90;;;;;;4146339;28;20336;-63
2022/08/26 11:05:36;;;;;;;;;;;29.70;62.90;;;;;;4180622;28;19958;-63
2022/08/26 11:07:50;;;;;;;;;;;29.80;62.20;;;;;;4179683;28;20355;-63
2022/08/26 11:09:51;;;;;;;;;;;29.80;63.00;;;;;;4180576;28;19913;-62
2022/08/26 11:11:52;;;;;;;;;;;30.00;63.30;;;;;;4197360;28;19904;-63
2022/08/26 11:13:56;;;;;;;;;;;30.20;62.30;;;;;;4199155;28;19954;-62
2022/08/26 11:15:57;;;;;;;;;;;30.30;61.90;;;;;;4197357;28;19958;-62
2022/08/26 11:18:00;;;;;;;;;;;30.40;62.50;;;;;;4199026;28;19962;-62
2022/08/26 11:20:03;;;;;;;;;;;30.60;62.30;;;;;;4193822;28;19908;-62
2022/08/26 11:22:05;;;;;;;;;;;30.60;61.60;;;;;;4196265;28;19958;-62
2022/08/26 11:24:06;;;;;;;;;;;30.60;61.30;;;;;;4195059;28;19958;-63
2022/08/26 11:26:07;;;;;;;;;;;30.70;61.60;;;;;;4196334;28;19908;-61
2022/08/26 11:28:08;;;;;;;;;;;30.50;61.00;;;;;;4194120;28;19914;-62
2022/08/26 11:30:12;;;;;;;;;;;30.50;61.20;;;;;;4196095;28;19954;-63
2022/08/26 11:32:23;;;;;;;;;;;30.50;61.10;;;;;;4194762;28;19904;-62
2022/08/26 11:34:44;;;;;;;;;;;30.40;61.20;;;;;;4196299;28;19920;-62
2022/08/26 11:36:45;;;;;;;;;;;30.30;61.30;;;;;;4194616;28;20318;-62
2022/08/26 11:38:46;;;;;;;;;;;30.30;62.20;;;;;;4195403;28;19904;-62
2022/08/26 11:40:54;;;;;;;;;;;30.10;61.40;;;;;;4194886;28;20406;-61
2022/08/26 11:43:04;;;;;;;;;;;30.10;61.40;;;;;;4195883;28;20348;-63
2022/08/26 11:45:28;;;;;;;;;;;30.20;61.20;;;;;;4194816;28;19908;-62
2022/08/26 11:47:30;;;;;;;;;;;30.30;61.60;;;;;;4187688;28;19908;-62
2022/08/26 11:49:31;;;;;;;;;;;30.50;62.20;;;;;;4194507;28;20908;-62
2022/08/26 11:51:33;;;;;;;;;;;30.50;61.20;;;;;;4195568;28;19917;-62
2022/08/26 11:53:36;;;;;;;;;;;30.50;60.60;;;;;;4194788;28;19957;-62
2022/08/26 11:55:41;;;;;;;;;;;30.40;61.00;;;;;;4195116;28;19908;-62
2022/08/26 11:57:48;;;;;;;;;;;30.40;60.30;;;;;;4194528;28;19908;-62
2022/08/26 11:59:49;;;;;;;;;;;30.30;59.80;;;;;;4195019;28;19984;-63
2022/08/26 12:01:52;;;;;;;;;;;30.20;60.10;;;;;;4195557;28;19904;-62
2022/08/26 12:03:53;;;;;;;;;;;30.40;60.20;;;;;;4194357;28;19966;-62
2022/08/26 12:05:54;;;;;;;;;;;30.40;56.90;;;;;;4195672;28;19949;-62